createdAt,value
2022-12-31T00:04:18.700Z,97662.16
2022-12-31T00:09:19.951Z,97663.13
2022-12-31T00:14:21.219Z,97667.19
2022-12-31T00:19:22.482Z,97668.09
2022-12-31T00:24:24.075Z,97670.44
2022-12-31T00:29:25.511Z,97671.31
2022-12-31T00:34:26.818Z,97670.16
2022-12-31T00:39:28.119Z,97680.31
2022-12-31T00:44:29.426Z,97696.97
2022-12-31T00:49:30.700Z,97693.38
2022-12-31T00:54:31.963Z,97692.03
2022-12-31T00:59:33.207Z,97695.09
2022-12-31T01:04:34.488Z,97705.03
2022-12-31T01:09:35.759Z,97711.00
2022-12-31T01:14:37.084Z,97707.81
2022-12-31T01:19:38.333Z,97705.09
2022-12-31T01:24:39.561Z,97710.22
2022-12-31T01:29:40.910Z,97729.75
2022-12-31T01:34:42.188Z,97734.06
2022-12-31T01:39:43.476Z,97738.28
2022-12-31T01:44:44.792Z,97743.97
2022-12-31T01:49:46.055Z,97741.78
2022-12-31T01:54:47.356Z,97732.38
2022-12-31T01:59:48.668Z,97731.28
2022-12-31T02:04:49.942Z,97723.28
2022-12-31T02:09:51.155Z,97730.78
2022-12-31T02:14:52.406Z,97725.66
2022-12-31T02:19:53.923Z,97722.75
2022-12-31T02:24:55.193Z,97737.78
2022-12-31T02:29:56.429Z,97744.69
2022-12-31T02:34:57.786Z,97746.31
2022-12-31T02:39:59.011Z,97743.91
2022-12-31T02:45:00.251Z,97746.50
2022-12-31T02:50:01.483Z,97758.91
2022-12-31T02:55:02.946Z,97757.84
2022-12-31T03:00:23.050Z,97761.13
2022-12-31T03:05:24.445Z,97770.88
2022-12-31T03:10:25.763Z,97771.56
2022-12-31T03:15:27.224Z,97765.69
2022-12-31T03:20:47.391Z,97758.44
2022-12-31T03:25:48.784Z,97778.59
2022-12-31T03:30:50.020Z,97793.84
2022-12-31T03:35:51.315Z,97804.28
2022-12-31T03:40:52.567Z,97811.72
2022-12-31T03:45:54.116Z,97815.09
2022-12-31T03:50:55.454Z,97811.44
2022-12-31T03:55:56.838Z,97816.63
2022-12-31T04:00:58.326Z,97819.00
2022-12-31T04:05:59.768Z,97806.25
2022-12-31T04:11:01.006Z,97802.50
2022-12-31T04:16:02.529Z,97808.31
2022-12-31T04:21:03.864Z,97801.84
2022-12-31T04:26:05.172Z,97796.13
2022-12-31T04:31:06.489Z,97801.59
2022-12-31T04:36:07.772Z,97817.34
2022-12-31T04:41:18.448Z,97814.03
2022-12-31T04:46:19.774Z,97824.53
2022-12-31T04:51:21.012Z,97833.06
2022-12-31T04:56:22.352Z,97839.56
2022-12-31T05:01:23.745Z,97833.38
2022-12-31T05:06:25.138Z,97843.59
2022-12-31T05:11:26.428Z,97844.97
2022-12-31T05:16:27.701Z,97857.59
2022-12-31T05:21:28.985Z,97854.22
2022-12-31T05:26:30.219Z,97853.84
2022-12-31T05:31:31.718Z,97846.47
2022-12-31T05:36:33.420Z,97854.78
2022-12-31T05:41:34.711Z,97851.06
2022-12-31T05:46:35.972Z,97856.06
2022-12-31T05:51:37.217Z,97855.22
2022-12-31T05:56:38.514Z,97873.19
2022-12-31T06:01:39.870Z,97868.75
2022-12-31T06:06:41.183Z,97877.66
2022-12-31T06:11:42.505Z,97894.19
2022-12-31T06:16:43.781Z,97889.25
2022-12-31T06:21:45.042Z,97895.00
2022-12-31T06:26:46.417Z,97895.03
2022-12-31T06:31:47.670Z,97888.50
2022-12-31T06:36:48.925Z,97893.78
2022-12-31T06:41:50.155Z,97886.81
2022-12-31T06:46:51.463Z,97884.31
2022-12-31T06:51:52.731Z,97888.66
2022-12-31T06:56:53.943Z,97895.09
2022-12-31T07:01:55.190Z,97892.69
2022-12-31T07:06:56.488Z,97904.53
2022-12-31T07:11:57.755Z,97908.75
2022-12-31T07:16:59.004Z,97902.94
2022-12-31T07:22:00.276Z,97897.69
2022-12-31T07:27:01.556Z,97906.28
2022-12-31T07:32:02.761Z,97903.59
2022-12-31T07:37:04.049Z,97914.53
2022-12-31T07:42:05.294Z,97919.28
2022-12-31T07:47:06.548Z,97913.09
2022-12-31T07:52:07.765Z,97912.41
2022-12-31T07:57:09.021Z,97933.69
2022-12-31T08:02:13.700Z,97944.00
2022-12-31T08:07:15.103Z,97945.31
2022-12-31T08:12:16.351Z,97942.13
2022-12-31T08:17:17.632Z,97959.31
2022-12-31T08:22:18.838Z,97974.69
2022-12-31T08:27:20.087Z,97972.28
2022-12-31T08:32:22.118Z,97970.84
2022-12-31T08:37:23.332Z,97977.81
2022-12-31T08:42:24.576Z,97972.97
2022-12-31T08:47:25.824Z,97985.63
2022-12-31T08:52:27.131Z,97983.97
2022-12-31T08:57:28.468Z,97979.13
2022-12-31T09:02:29.732Z,97979.59
2022-12-31T09:07:30.966Z,97990.91
2022-12-31T09:12:32.243Z,98004.09
2022-12-31T09:17:33.520Z,97999.22
2022-12-31T09:22:34.797Z,98015.03
2022-12-31T09:27:36.103Z,98017.13
2022-12-31T09:32:37.343Z,98005.47
2022-12-31T09:37:38.638Z,98016.78
2022-12-31T09:42:39.895Z,98012.09
2022-12-31T09:47:41.152Z,98015.16
2022-12-31T09:52:42.440Z,98010.84
2022-12-31T09:57:43.698Z,98009.69
2022-12-31T10:02:45.647Z,98009.38
2022-12-31T10:07:52.473Z,98010.06
2022-12-31T10:12:55.006Z,98007.50
2022-12-31T10:17:56.293Z,98016.97
2022-12-31T10:22:57.555Z,98007.72
2022-12-31T10:27:58.803Z,98006.00
2022-12-31T10:33:00.586Z,97999.81
2022-12-31T10:38:01.900Z,97993.38
2022-12-31T10:43:03.119Z,97998.06
2022-12-31T10:48:04.337Z,98002.34
2022-12-31T10:53:05.596Z,98002.59
2022-12-31T10:58:07.037Z,97988.47
2022-12-31T11:03:08.348Z,97991.22
2022-12-31T11:08:09.791Z,97974.31
2022-12-31T11:13:11.010Z,97984.66
2022-12-31T11:18:13.489Z,97962.41
2022-12-31T11:23:14.753Z,97950.69
2022-12-31T11:28:16.182Z,97939.84
2022-12-31T11:33:17.686Z,97928.41
2022-12-31T11:38:18.891Z,97914.44
2022-12-31T11:43:20.156Z,97894.22
2022-12-31T11:48:30.461Z,97877.19
2022-12-31T11:53:32.457Z,97864.94
2022-12-31T11:58:33.713Z,97854.53
2022-12-31T12:03:38.643Z,97840.34
2022-12-31T12:08:39.914Z,97830.28
2022-12-31T12:13:41.198Z,97820.31
2022-12-31T12:18:42.417Z,97820.84
2022-12-31T12:23:43.751Z,97811.78
2022-12-31T12:28:45.051Z,97816.84
2022-12-31T12:33:46.334Z,97799.69
2022-12-31T12:38:47.596Z,97793.53
2022-12-31T12:43:48.833Z,97797.59
2022-12-31T12:48:50.051Z,97801.81
2022-12-31T12:53:51.412Z,97794.19
2022-12-31T12:58:52.666Z,97792.31
2022-12-31T13:04:32.613Z,97798.75
2022-12-31T13:09:15.408Z,97797.53
2022-12-31T13:14:16.663Z,97818.69
2022-12-31T13:19:17.955Z,97808.22
2022-12-31T13:24:19.272Z,97785.72
2022-12-31T13:29:20.906Z,97785.19
2022-12-31T13:34:22.296Z,97792.75
2022-12-31T13:39:29.211Z,97807.47
2022-12-31T13:44:30.749Z,97816.59
2022-12-31T13:49:32.090Z,97819.44
2022-12-31T13:54:33.405Z,97825.66
2022-12-31T13:59:34.713Z,97821.38
2022-12-31T14:04:35.968Z,97833.88
2022-12-31T14:09:37.903Z,97841.84
2022-12-31T14:14:42.199Z,97846.41
2022-12-31T14:19:43.455Z,97855.00
2022-12-31T14:24:45.117Z,97851.84
2022-12-31T14:29:46.396Z,97856.84
2022-12-31T14:34:47.790Z,97866.09
2022-12-31T14:39:49.457Z,97876.78
2022-12-31T14:44:50.671Z,97886.09
2022-12-31T14:49:51.884Z,97896.31
2022-12-31T14:54:53.117Z,97903.66
2022-12-31T14:59:54.500Z,97911.47
2022-12-31T15:04:55.783Z,97912.47
2022-12-31T15:09:57.526Z,97917.53
2022-12-31T15:14:58.772Z,97926.88
2022-12-31T15:20:00.150Z,97928.00
2022-12-31T15:25:01.459Z,97934.88
2022-12-31T15:30:02.801Z,97929.06
2022-12-31T15:35:04.045Z,97936.84
2022-12-31T15:40:05.308Z,97942.13
2022-12-31T15:45:06.611Z,97947.72
2022-12-31T15:50:07.911Z,97954.75
2022-12-31T15:55:09.236Z,97972.72
2022-12-31T16:00:10.940Z,97975.25
2022-12-31T16:05:12.259Z,97992.56
2022-12-31T16:10:13.525Z,97993.22
2022-12-31T16:15:14.828Z,97994.91
2022-12-31T16:20:16.079Z,97997.63
2022-12-31T16:25:30.785Z,98005.94
2022-12-31T16:30:32.875Z,98006.66
2022-12-31T16:35:34.182Z,98005.53
2022-12-31T16:40:35.428Z,98001.22
2022-12-31T16:45:37.055Z,98006.31
2022-12-31T16:50:38.403Z,98004.34
2022-12-31T16:55:39.675Z,98008.25
2022-12-31T17:00:41.015Z,98005.84
2022-12-31T17:05:42.551Z,98000.38
2022-12-31T17:10:44.811Z,98006.91
2022-12-31T17:15:46.171Z,98009.31
2022-12-31T17:20:47.492Z,98014.59
2022-12-31T17:25:48.795Z,98023.06
2022-12-31T17:30:50.026Z,98031.97
2022-12-31T17:35:51.299Z,98034.97
2022-12-31T17:40:53.143Z,98037.56
2022-12-31T17:45:54.622Z,98029.03
2022-12-31T17:50:55.954Z,98035.25
2022-12-31T17:55:57.215Z,98027.41
2022-12-31T18:00:58.719Z,98016.78
2022-12-31T18:06:00.107Z,98028.63
2022-12-31T18:11:01.349Z,98020.25
2022-12-31T18:16:02.867Z,98030.31
2022-12-31T18:21:04.151Z,98025.44
2022-12-31T18:26:05.373Z,98039.59
2022-12-31T18:31:06.650Z,98036.41
2022-12-31T18:36:09.632Z,98035.69
2022-12-31T18:41:11.563Z,98041.06
2022-12-31T18:46:12.999Z,98040.38
2022-12-31T18:51:14.343Z,98046.69
2022-12-31T18:56:15.561Z,98060.59
2022-12-31T19:01:16.854Z,98064.66
2022-12-31T19:06:18.249Z,98063.78
2022-12-31T19:11:19.533Z,98061.47
2022-12-31T19:16:20.858Z,98066.28
2022-12-31T19:21:22.582Z,98065.81
2022-12-31T19:26:23.892Z,98075.47
2022-12-31T19:31:25.143Z,98075.97
2022-12-31T19:36:26.378Z,98081.13
2022-12-31T19:41:27.634Z,98078.63
2022-12-31T19:46:29.004Z,98081.75
2022-12-31T19:51:30.349Z,98084.53
2022-12-31T19:56:31.684Z,98086.28
2022-12-31T20:01:33.032Z,98104.59
2022-12-31T20:06:34.377Z,98113.94
2022-12-31T20:11:35.595Z,98103.78
2022-12-31T20:16:36.879Z,98110.22
2022-12-31T20:21:38.825Z,98113.31
2022-12-31T20:26:40.076Z,98105.16
2022-12-31T20:31:41.365Z,98124.22
2022-12-31T20:36:42.675Z,98125.72
2022-12-31T20:41:43.952Z,98120.41
2022-12-31T20:46:45.264Z,98117.13
2022-12-31T20:51:51.934Z,98118.53
2022-12-31T20:56:53.534Z,98115.06
2022-12-31T21:02:20.580Z,98103.53
2022-12-31T21:07:16.137Z,98107.47
2022-12-31T21:12:36.319Z,98124.03
2022-12-31T21:17:37.573Z,98123.03
2022-12-31T21:22:38.781Z,98143.19
2022-12-31T21:27:40.061Z,98137.88
2022-12-31T21:32:41.299Z,98132.38
2022-12-31T21:37:58.465Z,98132.28
2022-12-31T21:43:01.802Z,98127.06
2022-12-31T21:48:21.830Z,98132.97
2022-12-31T21:53:26.263Z,98122.75
2022-12-31T21:58:30.512Z,98128.97
2022-12-31T22:03:32.393Z,98121.47
2022-12-31T22:08:33.789Z,98112.59
2022-12-31T22:13:35.119Z,98108.69
2022-12-31T22:18:38.729Z,98097.31
2022-12-31T22:23:40.243Z,98094.28
2022-12-31T22:28:41.490Z,98087.66
2022-12-31T22:33:42.755Z,98094.19
2022-12-31T22:38:44.043Z,98092.69
2022-12-31T22:43:45.269Z,98101.06
2022-12-31T22:48:46.527Z,98110.84
2022-12-31T22:53:47.753Z,98107.66
2022-12-31T22:58:48.980Z,98113.47
2022-12-31T23:03:50.289Z,98107.41
2022-12-31T23:09:10.448Z,98108.31
2022-12-31T23:14:30.995Z,98120.75
2022-12-31T23:19:51.044Z,98121.44
2022-12-31T23:24:52.393Z,98129.84
2022-12-31T23:29:53.777Z,98138.38
2022-12-31T23:34:55.648Z,98139.19
2022-12-31T23:39:56.880Z,98139.22
2022-12-31T23:44:58.127Z,98146.63
2022-12-31T23:49:59.367Z,98157.63
2022-12-31T23:55:00.609Z,98159.03
